メインページ
METAR-TAF:

METAR-TAF

空港 :

モントリオール・トルドー, ケベック州, カナダ

モントリオール・ピエール・エリオット・トルドー国際空港

緯度: 45-28N, 経度: 073-45W, 海抜: 31m

現時点の気象観測

当レポートは22分前の10:50(UTC)に作成
北/北東の風 9kt
気温 18°C
湿度 100%
気圧 1017 hPa
視程: 4.0km
高度400ftの千切れ雲あり
高度700ftの曇り

METAR: CYUL 201050Z 02009KT 2 1/2SM BR BKN004 OVC007 18/18 A3003 RMK ST6SF2 SLP172 DENSITY ALT 500FT

時間: 07:12 (11:12 UTC)

予報

当レポートは1時間18分前の09:54(UTC)に作成
予報は20日の 09時(UTC)から 21日の 06時(UTC)まで有効
北/北東の風 8kt
視程: 9.7km
高度200ftの雲はほとんどない
20日の 09時(UTC)から 20日の 14時(UTC)まで一時的に
視程: 1.2km
高度200ftの千切れ雲あり
20日の 1500時(UTC)から
北/北東の風 12kt
視程: 10km
高度2000ftの雲はほとんどない

TAF: CYUL 200954Z 2009/2106 03008KT 6SM BR FEW002 TEMPO 2009/2014 3/4SM BR BKN002 FM201500 03012KT P6SM FEW020 RMK NXT FCST BY 201200Z

4,000以上の空港の気象観測と天気予報(METAR報とTAF報)

利用可能な観測所は地図上に黄色い丸と赤い丸で示す。

丸の上にカーソルを重ねると観測所名を参照できる。

次にクリックすると気象観測と天気予報を参照できる。

マップの切り替え:黒色「×」印の緑ボタンをクリックして拡大、「-」印の緑ボタンをクリックして縮小、緑色の三角印をクリックして隣りの地図に切り替え


METAR-TAF: